Time;durP1;ratioP1;P1;durP2;ratioP2;P2;SDS_P1;SDS_P2;PMS_P1;PMS_P2;Temp;Humidity;BMP_temperature;BMP_pressure;BME280_temperature;BME280_humidity;BME280_pressure;Samples;Min_cycle;Max_cycle;Signal;HPM_P1;HPM_P2
2021/10/30 00:01:05;;;;;;;65.22;32.85;;;2.40;99.90;;;;;;5014421;28;20054;-91
2021/10/30 00:03:32;;;;;;;54.10;30.77;;;2.30;99.90;;;;;;5015533;28;20050;-92
2021/10/30 00:05:59;;;;;;;54.35;30.80;;;2.30;99.90;;;;;;5013836;28;20054;-93
2021/10/30 00:08:28;;;;;;;49.38;29.33;;;2.30;99.90;;;;;;5014153;28;20505;-92
2021/10/30 00:10:58;;;;;;;51.88;30.02;;;2.30;99.90;;;;;;5013828;28;20058;-92
2021/10/30 00:13:26;;;;;;;56.92;30.27;;;2.30;99.90;;;;;;5014039;28;20046;-92
2021/10/30 00:15:54;;;;;;;58.10;32.28;;;2.30;99.90;;;;;;5013655;28;20570;-92
2021/10/30 00:18:21;;;;;;;62.63;31.77;;;2.30;99.90;;;;;;5013972;28;20080;-92
2021/10/30 00:20:48;;;;;;;52.28;31.25;;;2.30;99.90;;;;;;5013986;28;20049;-92
2021/10/30 00:23:15;;;;;;;62.53;31.60;;;2.30;99.90;;;;;;5013917;28;20482;-91
2021/10/30 00:25:42;;;;;;;57.85;31.42;;;2.30;99.90;;;;;;5013578;28;20042;-92
2021/10/30 00:28:09;;;;;;;62.80;32.75;;;2.20;99.90;;;;;;5013615;28;20053;-92
2021/10/30 00:30:36;;;;;;;53.20;30.83;;;2.20;99.90;;;;;;5013697;28;20053;-92
2021/10/30 00:33:03;;;;;;;63.55;32.38;;;2.20;99.90;;;;;;5013700;28;20073;-92
2021/10/30 00:35:30;;;;;;;50.47;30.95;;;2.00;99.90;;;;;;5013201;28;20056;-92
2021/10/30 00:37:56;;;;;;;58.63;30.33;;;2.00;99.90;;;;;;5013707;28;20050;-91
2021/10/30 00:40:23;;;;;;;53.90;29.95;;;1.90;99.90;;;;;;5013595;28;20066;-92
2021/10/30 00:42:51;;;;;;;64.47;33.25;;;1.90;99.90;;;;;;5013457;28;20067;-92
2021/10/30 00:45:18;;;;;;;49.67;28.83;;;2.00;99.90;;;;;;5013717;28;20060;-92
2021/10/30 00:47:45;;;;;;;47.90;26.98;;;2.00;99.90;;;;;;5012636;28;20497;-92
2021/10/30 00:50:11;;;;;;;47.65;26.63;;;2.00;99.90;;;;;;5013527;28;20064;-91
2021/10/30 00:52:39;;;;;;;47.40;26.98;;;1.90;99.90;;;;;;5013714;28;20129;-91
2021/10/30 00:55:09;;;;;;;47.85;28.67;;;1.80;99.90;;;;;;5012856;28;20100;-91
2021/10/30 00:57:41;;;;;;;48.42;27.80;;;1.70;99.90;;;;;;5014982;28;20045;-91
2021/10/30 01:00:09;;;;;;;45.95;27.77;;;1.80;99.90;;;;;;5026503;28;20061;-91
2021/10/30 01:02:36;;;;;;;52.13;27.73;;;1.80;99.90;;;;;;5019559;28;20077;-92
2021/10/30 01:05:04;;;;;;;46.53;28.67;;;1.80;99.90;;;;;;5012886;28;20050;-91
2021/10/30 01:07:32;;;;;;;55.10;28.73;;;1.90;99.90;;;;;;5013275;28;20049;-92
2021/10/30 01:10:00;;;;;;;49.40;29.17;;;1.90;99.90;;;;;;5012586;28;20058;-91
2021/10/30 01:12:27;;;;;;;48.65;28.08;;;1.90;99.90;;;;;;5012977;28;20132;-91
2021/10/30 01:14:54;;;;;;;45.03;26.95;;;1.80;99.90;;;;;;5012861;28;20141;-91
2021/10/30 01:17:21;;;;;;;48.80;28.73;;;1.80;99.90;;;;;;5012857;28;20046;-92
2021/10/30 01:19:54;;;;;;;49.95;28.23;;;1.80;99.90;;;;;;5012995;28;20049;-91
2021/10/30 01:22:23;;;;;;;61.25;30.15;;;1.70;99.90;;;;;;5012949;28;20056;-92
2021/10/30 01:24:51;;;;;;;45.58;27.73;;;1.70;99.90;;;;;;5013101;28;20489;-91
2021/10/30 01:27:20;;;;;;;48.72;28.17;;;1.70;99.90;;;;;;5012604;28;20121;-91
2021/10/30 01:29:51;;;;;;;45.20;26.73;;;1.60;99.90;;;;;;5013695;28;20056;-91
2021/10/30 01:32:19;;;;;;;49.42;28.20;;;1.70;99.90;;;;;;5013195;28;20136;-91
2021/10/30 01:34:46;;;;;;;51.33;27.73;;;1.60;99.90;;;;;;5012531;28;20072;-91
2021/10/30 01:37:14;;;;;;;48.80;29.73;;;1.50;99.90;;;;;;5012645;28;20140;-91
2021/10/30 01:39:41;;;;;;;63.55;32.63;;;1.50;99.90;;;;;;5012835;28;20081;-92
2021/10/30 01:42:08;;;;;;;50.72;30.20;;;1.50;99.90;;;;;;5012308;28;20048;-92
2021/10/30 01:44:35;;;;;;;64.55;33.97;;;1.50;99.90;;;;;;5012920;28;20060;-91
2021/10/30 01:47:02;;;;;;;56.30;31.83;;;1.50;99.90;;;;;;5012474;28;20140;-92
2021/10/30 01:49:30;;;;;;;48.00;28.52;;;1.50;99.90;;;;;;5012890;28;20517;-91
2021/10/30 01:51:57;;;;;;;54.67;28.33;;;1.40;99.90;;;;;;5012241;28;20510;-92
2021/10/30 01:54:24;;;;;;;54.08;28.70;;;1.40;99.90;;;;;;5012413;28;20050;-92
2021/10/30 01:56:51;;;;;;;48.88;27.75;;;1.40;99.90;;;;;;5012248;28;20057;-91
2021/10/30 01:59:17;;;;;;;48.15;26.63;;;1.40;99.90;;;;;;5014168;28;20056;-92
2021/10/30 02:01:44;;;;;;;44.50;26.38;;;1.30;99.90;;;;;;5016281;28;20054;-91
2021/10/30 02:04:11;;;;;;;47.55;26.85;;;1.30;99.90;;;;;;5016416;28;20054;-92
2021/10/30 02:06:38;;;;;;;50.10;28.00;;;1.20;99.90;;;;;;5016491;28;20053;-91
2021/10/30 02:09:05;;;;;;;44.03;27.08;;;1.20;99.90;;;;;;5016792;28;20052;-91
2021/10/30 02:11:31;;;;;;;50.70;27.45;;;1.20;99.90;;;;;;5019802;28;20049;-92
2021/10/30 02:13:58;;;;;;;45.67;26.05;;;1.20;99.90;;;;;;5019364;28;20462;-92
2021/10/30 02:16:25;;;;;;;52.00;26.48;;;1.20;99.90;;;;;;5022557;28;20136;-92
2021/10/30 02:18:52;;;;;;;45.15;25.73;;;1.20;99.90;;;;;;5036449;28;20031;-91
2021/10/30 02:21:18;;;;;;;56.40;29.52;;;1.10;99.90;;;;;;5024573;28;20053;-92
2021/10/30 02:23:45;;;;;;;62.95;29.23;;;0.90;99.90;;;;;;5019324;28;20485;-91
2021/10/30 02:26:12;;;;;;;47.15;27.38;;;1.00;99.90;;;;;;5019265;28;20046;-91
2021/10/30 02:28:38;;;;;;;52.53;28.25;;;0.90;99.90;;;;;;5019366;28;20140;-92
2021/10/30 02:31:05;;;;;;;50.45;27.83;;;0.90;99.90;;;;;;5019356;28;20149;-92
2021/10/30 02:33:32;;;;;;;49.00;26.92;;;0.90;99.90;;;;;;5019410;28;20053;-91
2021/10/30 02:35:59;;;;;;;45.85;26.73;;;0.90;99.90;;;;;;5018598;28;20053;-91
2021/10/30 02:38:25;;;;;;;46.70;25.77;;;0.80;99.90;;;;;;5019135;28;20109;-91
2021/10/30 02:40:52;;;;;;;48.75;27.02;;;0.80;99.90;;;;;;5019387;28;20049;-92
2021/10/30 02:43:19;;;;;;;45.55;25.45;;;0.80;99.90;;;;;;5019157;28;20057;-91
2021/10/30 02:45:46;;;;;;;49.78;27.13;;;0.80;99.90;;;;;;5018772;28;20057;-91
2021/10/30 02:48:13;;;;;;;67.38;30.88;;;0.70;99.90;;;;;;5018895;28;20045;-91
2021/10/30 02:50:40;;;;;;;51.35;28.33;;;0.70;99.90;;;;;;5018704;28;20063;-92
2021/10/30 02:53:06;;;;;;;53.30;27.85;;;0.80;99.90;;;;;;5018524;28;20041;-92
2021/10/30 02:55:33;;;;;;;58.38;29.95;;;0.70;99.90;;;;;;5018533;28;20565;-91
2021/10/30 02:58:00;;;;;;;55.85;30.13;;;0.70;99.90;;;;;;5018467;28;20047;-92
2021/10/30 03:00:27;;;;;;;53.03;28.38;;;0.70;99.90;;;;;;5018216;28;20063;-91
2021/10/30 03:02:54;;;;;;;52.13;28.15;;;0.80;99.90;;;;;;5018589;28;20056;-92
2021/10/30 03:05:21;;;;;;;54.28;28.40;;;0.80;99.90;;;;;;5018428;28;20061;-92
2021/10/30 03:07:47;;;;;;;52.60;28.27;;;0.70;99.90;;;;;;5018299;28;20069;-92
2021/10/30 03:10:15;;;;;;;51.05;28.85;;;0.60;99.90;;;;;;5017628;28;20080;-91
2021/10/30 03:12:45;;;;;;;59.38;31.50;;;0.50;99.90;;;;;;5018264;28;20065;-92
2021/10/30 03:15:12;;;;;;;50.75;26.92;;;0.50;99.90;;;;;;5018052;28;20053;-92
2021/10/30 03:17:38;;;;;;;54.67;27.45;;;0.60;99.90;;;;;;5018192;28;20085;-92
2021/10/30 03:20:07;;;;;;;47.38;26.70;;;0.50;99.90;;;;;;5018093;28;20062;-91
2021/10/30 03:22:34;;;;;;;52.97;25.85;;;0.50;99.90;;;;;;5018379;28;20140;-92
2021/10/30 03:25:00;;;;;;;45.70;25.83;;;0.50;99.90;;;;;;5018135;28;20502;-91
2021/10/30 03:27:27;;;;;;;47.13;26.73;;;0.50;99.90;;;;;;5018122;28;20128;-91
2021/10/30 03:29:54;;;;;;;46.63;27.33;;;0.50;99.90;;;;;;5018107;28;20425;-92
2021/10/30 03:32:21;;;;;;;53.20;27.58;;;0.60;99.90;;;;;;5018130;28;20137;-92
2021/10/30 03:34:47;;;;;;;45.05;25.60;;;0.50;99.90;;;;;;5020824;28;20067;-91
2021/10/30 03:37:14;;;;;;;47.70;25.98;;;0.50;99.90;;;;;;5036913;28;20061;-91
2021/10/30 03:39:41;;;;;;;44.17;25.83;;;0.40;99.90;;;;;;5023065;28;20136;-91
2021/10/30 03:42:08;;;;;;;48.90;26.67;;;0.40;99.90;;;;;;5017766;28;20136;-91
2021/10/30 03:44:36;;;;;;;60.60;28.35;;;0.40;99.90;;;;;;5017704;28;20500;-92
2021/10/30 03:47:04;;;;;;;48.45;27.05;;;0.40;99.90;;;;;;5001102;28;20047;-92
2021/10/30 03:49:30;;;;;;;45.90;25.52;;;0.30;99.90;;;;;;5017716;28;20136;-91
2021/10/30 03:51:57;;;;;;;42.70;24.70;;;0.30;99.90;;;;;;5017507;28;20050;-91
2021/10/30 03:54:24;;;;;;;45.50;25.70;;;0.30;99.90;;;;;;5017493;28;20104;-91
2021/10/30 03:56:51;;;;;;;50.78;25.73;;;0.20;99.90;;;;;;5017519;28;20141;-92
2021/10/30 03:59:17;;;;;;;43.88;25.83;;;0.10;99.90;;;;;;5017702;28;20068;-91
2021/10/30 04:01:44;;;;;;;48.28;25.25;;;0.10;99.90;;;;;;5017638;28;20576;-91
2021/10/30 04:04:11;;;;;;;43.30;24.40;;;0.10;99.90;;;;;;5017900;28;20057;-92
2021/10/30 04:06:38;;;;;;;49.15;25.60;;;0.10;99.90;;;;;;5017455;28;20113;-92
2021/10/30 04:09:05;;;;;;;43.50;25.17;;;0.10;99.90;;;;;;5019539;28;20524;-91
2021/10/30 04:11:32;;;;;;;48.53;25.58;;;0.10;99.90;;;;;;5019647;28;20073;-91
2021/10/30 04:13:59;;;;;;;44.65;25.88;;;0.10;99.90;;;;;;5017458;28;20132;-92
2021/10/30 04:16:25;;;;;;;75.93;40.30;;;0.10;99.90;;;;;;5017260;28;20049;-91
2021/10/30 04:18:52;;;;;;;67.65;40.47;;;0.00;99.90;;;;;;5017302;28;20057;-92
2021/10/30 04:21:19;;;;;;;49.65;28.25;;;0.00;99.90;;;;;;5017212;28;20135;-91
2021/10/30 04:23:46;;;;;;;54.80;26.13;;;0.00;99.90;;;;;;5016866;28;20069;-91
2021/10/30 04:26:12;;;;;;;49.38;26.27;;;0.00;99.90;;;;;;5016470;28;20506;-92
2021/10/30 04:28:39;;;;;;;48.83;26.13;;;0.00;99.90;;;;;;5017019;28;20053;-91
2021/10/30 04:31:07;;;;;;;43.17;26.00;;;0.10;99.90;;;;;;5017180;28;20410;-92
2021/10/30 04:33:43;;;;;;;44.55;24.85;;;0.00;99.90;;;;;;5017803;28;20140;-91
2021/10/30 04:36:15;;;;;;;47.63;24.67;;;0.10;99.90;;;;;;5016363;28;20077;-92
2021/10/30 04:38:43;;;;;;;45.58;24.33;;;0.00;99.90;;;;;;5017403;28;20053;-91
2021/10/30 04:41:10;;;;;;;50.50;26.08;;;0.00;99.90;;;;;;5016929;28;20053;-91
2021/10/30 04:43:37;;;;;;;49.58;25.40;;;0.10;99.90;;;;;;5017140;28;20052;-91
2021/10/30 04:46:05;;;;;;;46.88;24.95;;;0.00;99.90;;;;;;5016569;28;20136;-92
2021/10/30 04:48:33;;;;;;;47.97;25.23;;;0.00;99.90;;;;;;5017092;28;20061;-92
2021/10/30 04:51:01;;;;;;;47.58;25.10;;;0.00;99.90;;;;;;5017306;28;20064;-91
2021/10/30 04:53:28;;;;;;;49.15;24.95;;;-0.10;99.90;;;;;;5022741;28;20101;-91
2021/10/30 04:55:54;;;;;;;46.75;24.85;;;-0.10;99.90;;;;;;5036867;28;20109;-91
2021/10/30 04:58:21;;;;;;;47.47;26.17;;;0.00;99.90;;;;;;5018028;28;20551;-91
2021/10/30 05:00:48;;;;;;;47.45;25.00;;;-0.10;99.90;;;;;;5016361;28;20056;-91
2021/10/30 05:03:15;;;;;;;49.72;25.83;;;-0.10;99.90;;;;;;5016625;28;20064;-91
2021/10/30 05:05:42;;;;;;;51.33;27.67;;;-0.10;99.90;;;;;;5016557;28;20137;-91
2021/10/30 05:08:09;;;;;;;48.30;25.90;;;-0.10;99.90;;;;;;5016278;28;20069;-92
2021/10/30 05:10:36;;;;;;;45.97;24.63;;;-0.10;99.90;;;;;;5015966;28;20147;-91
2021/10/30 05:13:02;;;;;;;43.22;24.75;;;-0.10;99.90;;;;;;5015767;28;20523;-91
2021/10/30 05:15:29;;;;;;;48.83;24.38;;;-0.20;99.90;;;;;;5015628;28;20143;-92
2021/10/30 05:17:56;;;;;;;48.85;24.85;;;-0.20;99.90;;;;;;5016319;28;20099;-91
2021/10/30 05:20:22;;;;;;;42.42;23.63;;;-0.30;99.90;;;;;;5016223;28;20051;-92
2021/10/30 05:22:49;;;;;;;44.70;23.67;;;-0.30;99.90;;;;;;5016385;28;20414;-92
2021/10/30 05:25:16;;;;;;;44.13;23.20;;;-0.30;99.90;;;;;;5016216;28;20052;-92
2021/10/30 05:27:43;;;;;;;44.42;23.08;;;-0.30;99.90;;;;;;5016443;28;20083;-92
2021/10/30 05:30:10;;;;;;;48.65;24.95;;;-0.30;99.90;;;;;;5016184;28;20419;-92
2021/10/30 05:32:36;;;;;;;42.55;24.15;;;-0.40;99.90;;;;;;5016294;28;20053;-92
2021/10/30 05:35:03;;;;;;;54.88;24.88;;;-0.40;99.90;;;;;;5018684;28;20056;-92
2021/10/30 05:37:30;;;;;;;46.53;23.58;;;-0.50;99.90;;;;;;5020256;28;20135;-93
2021/10/30 05:39:57;;;;;;;53.22;25.63;;;-0.40;99.90;;;;;;5019042;28;20125;-92
2021/10/30 05:42:24;;;;;;;50.10;24.92;;;-0.40;99.90;;;;;;5020311;28;20058;-91
2021/10/30 05:44:51;;;;;;;51.38;28.02;;;-0.40;99.90;;;;;;5019944;28;20049;-92
2021/10/30 05:47:18;;;;;;;50.38;27.00;;;-0.30;99.90;;;;;;5019719;28;20045;-92
2021/10/30 05:49:45;;;;;;;53.83;27.50;;;-0.30;99.90;;;;;;5019965;28;20049;-92
2021/10/30 05:52:13;;;;;;;53.65;26.90;;;-0.30;99.90;;;;;;5018757;28;20140;-92
2021/10/30 05:54:39;;;;;;;49.47;23.80;;;-0.30;99.90;;;;;;5018522;28;20140;-92
2021/10/30 05:57:11;;;;;;;49.47;25.60;;;-0.40;99.90;;;;;;5018295;28;20061;-91
2021/10/30 05:59:38;;;;;;;60.58;28.58;;;-0.50;99.90;;;;;;5019146;28;20484;-91
2021/10/30 06:02:06;;;;;;;67.72;29.52;;;-0.50;99.90;;;;;;5019538;28;20050;-91
2021/10/30 06:04:33;;;;;;;64.20;33.17;;;-0.60;99.90;;;;;;5019728;28;20041;-92
2021/10/30 06:07:00;;;;;;;58.80;29.55;;;-0.60;99.90;;;;;;5019898;28;20136;-92
2021/10/30 06:09:26;;;;;;;59.55;28.17;;;-0.50;99.90;;;;;;5020133;28;20073;-91
2021/10/30 06:11:58;;;;;;;55.05;28.48;;;-0.50;99.90;;;;;;5025332;28;20053;-92
2021/10/30 06:14:25;;;;;;;56.88;28.23;;;-0.50;99.90;;;;;;5039152;28;20069;-91
2021/10/30 06:16:53;;;;;;;65.20;30.95;;;-0.40;99.90;;;;;;5025234;28;20132;-92
2021/10/30 06:19:20;;;;;;;56.28;29.17;;;-0.40;99.90;;;;;;5019804;28;20052;-92
2021/10/30 06:21:46;;;;;;;84.63;37.38;;;-0.30;99.90;;;;;;5036928;28;20088;-92
2021/10/30 06:24:13;;;;;;;65.45;32.25;;;-0.30;99.90;;;;;;5019371;28;20050;-90
2021/10/30 06:26:40;;;;;;;66.93;31.90;;;-0.30;99.90;;;;;;5019637;28;20049;-91
2021/10/30 06:29:06;;;;;;;59.63;29.55;;;-0.30;99.90;;;;;;5022126;28;20423;-92
2021/10/30 06:31:33;;;;;;;69.68;32.25;;;-0.20;99.90;;;;;;5018993;28;20136;-92
2021/10/30 06:34:00;;;;;;;56.83;29.75;;;-0.20;99.90;;;;;;5019246;28;20045;-91
2021/10/30 06:36:26;;;;;;;58.20;29.27;;;-0.20;99.90;;;;;;5018341;28;20421;-92
2021/10/30 06:38:56;;;;;;;59.42;28.50;;;-0.20;99.90;;;;;;5019741;28;20049;-92
2021/10/30 06:41:42;;;;;;;57.55;28.63;;;-0.10;99.90;;;;;;5022524;28;20402;-92
2021/10/30 06:44:09;;;;;;;65.22;29.33;;;-0.10;99.90;;;;;;5019262;28;20156;-92
2021/10/30 06:46:36;;;;;;;65.22;31.20;;;0.00;99.90;;;;;;5017861;28;20046;-92
2021/10/30 06:49:03;;;;;;;55.85;28.65;;;-0.10;99.90;;;;;;5019512;28;20059;-92
2021/10/30 06:51:29;;;;;;;56.88;28.63;;;0.00;99.90;;;;;;5019341;28;20092;-92
2021/10/30 06:53:56;;;;;;;55.03;28.20;;;0.00;99.90;;;;;;5019329;28;20436;-91
2021/10/30 06:56:23;;;;;;;55.15;27.60;;;0.10;99.90;;;;;;5019402;28;20056;-91
2021/10/30 06:58:50;;;;;;;59.03;29.35;;;0.10;99.90;;;;;;5019082;28;20045;-91
2021/10/30 07:01:17;;;;;;;65.35;32.15;;;0.10;99.90;;;;;;5003141;28;20080;-91
2021/10/30 07:03:44;;;;;;;67.53;33.50;;;0.20;99.90;;;;;;5019173;28;20045;-91
2021/10/30 07:06:11;;;;;;;68.07;32.05;;;0.30;99.90;;;;;;5036247;28;20052;-91
2021/10/30 07:08:38;;;;;;;64.57;32.53;;;0.30;99.90;;;;;;5019073;28;20049;-92
2021/10/30 07:11:05;;;;;;;64.18;33.65;;;0.40;99.90;;;;;;5018587;28;20152;-91
2021/10/30 07:13:32;;;;;;;64.60;33.63;;;0.50;99.90;;;;;;5036144;28;20482;-91
2021/10/30 07:15:59;;;;;;;76.47;36.80;;;0.50;99.90;;;;;;5018689;28;20056;-91
2021/10/30 07:18:26;;;;;;;68.30;34.28;;;0.60;99.90;;;;;;5017745;28;20045;-91
2021/10/30 07:20:52;;;;;;;86.55;38.30;;;0.60;99.90;;;;;;5018085;28;20045;-92
2021/10/30 07:23:19;;;;;;;75.97;37.85;;;0.70;99.90;;;;;;5034688;28;20132;-91
2021/10/30 07:25:46;;;;;;;73.18;34.45;;;0.70;99.90;;;;;;5032259;28;20474;-91
2021/10/30 07:28:13;;;;;;;69.15;34.83;;;0.70;99.90;;;;;;5018487;28;20144;-91
2021/10/30 07:30:40;;;;;;;67.20;35.17;;;0.80;99.90;;;;;;5021144;28;20076;-92
2021/10/30 07:33:07;;;;;;;67.40;34.20;;;0.80;99.90;;;;;;5035160;28;20112;-91
2021/10/30 07:35:33;;;;;;;100.47;39.90;;;0.80;99.90;;;;;;5035781;28;20081;-91
2021/10/30 07:38:00;;;;;;;64.07;34.78;;;0.80;99.90;;;;;;5017292;28;20046;-92
2021/10/30 07:40:31;;;;;;;92.05;37.10;;;0.90;99.90;;;;;;5017634;28;20049;-91
2021/10/30 07:42:59;;;;;;;71.75;36.30;;;0.90;99.90;;;;;;5035090;28;20132;-91
2021/10/30 07:45:27;;;;;;;87.82;37.50;;;1.00;99.90;;;;;;5034834;28;20065;-91
2021/10/30 07:47:55;;;;;;;89.55;39.53;;;1.00;99.90;;;;;;5017546;28;20131;-91
2021/10/30 07:50:24;;;;;;;81.25;36.63;;;1.00;99.90;;;;;;5017251;28;20049;-91
2021/10/30 07:52:51;;;;;;;65.97;34.33;;;1.10;99.90;;;;;;5029086;28;20053;-90
2021/10/30 07:55:22;;;;;;;70.05;33.28;;;1.10;99.90;;;;;;5017630;28;20053;-91
2021/10/30 07:57:49;;;;;;;67.63;33.05;;;1.20;99.90;;;;;;5016676;28;20053;-91
2021/10/30 08:00:16;;;;;;;66.80;33.15;;;1.20;99.90;;;;;;5035144;28;20152;-91
2021/10/30 08:02:43;;;;;;;76.30;34.58;;;1.30;99.90;;;;;;5034691;28;20053;-91
2021/10/30 08:05:12;;;;;;;83.50;35.13;;;1.30;99.90;;;;;;5017146;28;20053;-91
2021/10/30 08:07:40;;;;;;;109.40;41.90;;;1.40;99.90;;;;;;5036009;28;20486;-91
2021/10/30 08:10:07;;;;;;;153.23;48.40;;;1.60;99.90;;;;;;5013465;28;20133;-91
2021/10/30 08:12:34;;;;;;;1863.82;414.50;;;2.10;99.90;;;;;;5013196;28;20129;-90
2021/10/30 08:15:03;;;;;;;1998.82;538.47;;;2.90;99.90;;;;;;5012681;28;20414;-91
2021/10/30 08:17:31;;;;;;;258.83;92.95;;;3.70;99.90;;;;;;5012687;28;20506;-91
2021/10/30 08:20:02;;;;;;;555.00;209.85;;;4.80;99.90;;;;;;5013558;28;20048;-91
2021/10/30 08:22:30;;;;;;;148.57;70.13;;;4.60;99.90;;;;;;5012893;28;20506;-91
2021/10/30 08:24:58;;;;;;;123.47;62.42;;;4.70;99.90;;;;;;5012898;28;20383;-91
2021/10/30 08:27:24;;;;;;;122.97;59.08;;;4.80;99.90;;;;;;5012619;28;20076;-91
2021/10/30 08:29:51;;;;;;;111.80;52.08;;;4.90;99.90;;;;;;5012762;28;20524;-90
2021/10/30 08:32:18;;;;;;;102.45;48.67;;;4.80;99.90;;;;;;5012738;28;20042;-91
2021/10/30 08:34:45;;;;;;;97.53;45.95;;;5.40;99.90;;;;;;5012588;28;20053;-91
2021/10/30 08:37:11;;;;;;;75.85;38.47;;;5.30;99.90;;;;;;5012569;28;20513;-91
2021/10/30 08:39:39;;;;;;;79.30;35.70;;;5.80;99.90;;;;;;5013655;28;20046;-91
2021/10/30 08:42:06;;;;;;;64.30;33.28;;;6.20;99.90;;;;;;5012397;28;20085;-92
2021/10/30 08:44:37;;;;;;;70.25;32.58;;;6.50;99.90;;;;;;5012556;28;20499;-91
2021/10/30 08:47:05;;;;;;;98.97;34.53;;;6.90;99.90;;;;;;5013231;28;20081;-91
2021/10/30 08:49:36;;;;;;;49.80;22.38;;;7.50;99.90;;;;;;5030880;28;20061;-92
2021/10/30 08:52:04;;;;;;;29.83;20.17;;;8.30;99.90;;;;;;5027327;28;20443;-92
2021/10/30 08:54:33;;;;;;;37.10;21.05;;;8.90;99.90;;;;;;5012338;28;20418;-92
2021/10/30 08:57:00;;;;;;;32.10;17.67;;;9.60;99.90;;;;;;5012097;28;20049;-91
2021/10/30 08:59:40;;;;;;;26.63;16.00;;;10.20;99.90;;;;;;5012412;28;20053;-89
2021/10/30 09:02:09;;;;;;;22.08;15.10;;;11.10;99.90;;;;;;5012622;28;20073;-92
2021/10/30 09:04:35;;;;;;;19.92;14.18;;;11.60;99.90;;;;;;5012410;28;20045;-90
2021/10/30 09:07:08;;;;;;;23.33;13.68;;;11.50;99.90;;;;;;5012169;28;20062;-90
2021/10/30 09:09:37;;;;;;;17.17;13.47;;;11.90;99.90;;;;;;4974506;28;1087878;-90
2021/10/30 09:12:04;;;;;;;23.20;14.57;;;12.40;99.90;;;;;;5013086;28;20050;-89
2021/10/30 09:14:41;;;;;;;20.40;14.15;;;12.30;99.90;;;;;;5013132;28;20076;-90
2021/10/30 09:17:17;;;;;;;30.75;13.40;;;12.90;99.90;;;;;;5014080;28;20557;-90
2021/10/30 09:19:50;;;;;;;22.60;12.82;;;13.70;99.90;;;;;;5013950;28;20050;-90
2021/10/30 09:22:18;;;;;;;29.35;13.07;;;14.90;99.90;;;;;;5014093;28;20050;-89
2021/10/30 09:24:59;;;;;;;40.53;13.00;;;15.30;99.90;;;;;;5013949;28;20050;-90
2021/10/30 09:27:44;;;;;;;64.18;16.20;;;16.40;99.90;;;;;;5013563;28;20494;-90
2021/10/30 09:30:13;;;;;;;53.10;13.32;;;17.20;99.90;;;;;;5013813;28;20456;-90
2021/10/30 09:32:41;;;;;;;55.35;14.85;;;18.00;99.90;;;;;;5013137;28;20050;-89
2021/10/30 09:35:10;;;;;;;40.50;11.95;;;18.70;97.90;;;;;;5012842;28;20125;-89
2021/10/30 09:37:37;;;;;;;22.83;10.27;;;19.40;94.60;;;;;;5012593;28;20053;-90
2021/10/30 09:40:26;;;;;;;34.65;12.07;;;20.10;91.70;;;;;;5012316;28;20068;-90
2021/10/30 09:43:12;;;;;;;13.77;9.32;;;20.30;90.10;;;;;;5012547;28;20064;-90
2021/10/30 09:45:47;;;;;;;16.77;9.70;;;20.70;88.60;;;;;;5012668;28;20077;-90
2021/10/30 09:48:23;;;;;;;16.00;8.85;;;20.80;85.30;;;;;;5012901;28;20084;-90
2021/10/30 09:50:52;;;;;;;14.57;8.60;;;21.40;86.70;;;;;;5012657;28;20490;-90
2021/10/30 09:53:32;;;;;;;11.52;8.40;;;22.60;79.90;;;;;;5013023;28;20553;-91
2021/10/30 09:56:11;;;;;;;19.60;10.77;;;20.90;82.30;;;;;;5012672;28;20609;-90
2021/10/30 09:58:39;;;;;;;49.42;11.88;;;20.70;82.00;;;;;;5012635;28;20606;-91
2021/10/30 10:01:11;;;;;;;19.00;8.80;;;19.90;86.50;;;;;;5012889;28;20041;-91
2021/10/30 10:03:43;;;;;;;18.07;8.73;;;20.20;85.70;;;;;;5013047;28;20089;-90
2021/10/30 10:06:12;;;;;;;11.25;7.57;;;20.90;83.80;;;;;;5017936;28;20118;-90
2021/10/30 10:08:41;;;;;;;14.48;8.30;;;20.80;86.40;;;;;;5036913;28;20125;-90
2021/10/30 10:11:13;;;;;;;13.73;7.60;;;22.70;78.20;;;;;;5019375;28;20566;-91
2021/10/30 10:13:42;;;;;;;12.50;7.05;;;22.50;79.10;;;;;;5012497;28;20064;-90
2021/10/30 10:16:20;;;;;;;14.30;6.70;;;22.90;75.00;;;;;;5012000;28;20249;-91
2021/10/30 10:18:59;;;;;;;7.70;6.90;;;23.40;73.10;;;;;;5012374;28;20049;-91
2021/10/30 10:21:30;;;;;;;13.25;7.05;;;23.10;73.40;;;;;;5015319;28;20064;-91
2021/10/30 10:23:58;;;;;;;17.55;7.13;;;23.50;72.80;;;;;;5015935;28;20062;-90
2021/10/30 10:26:50;;;;;;;20.40;7.45;;;23.70;71.70;;;;;;5015777;28;20491;-90
2021/10/30 10:29:31;;;;;;;23.38;7.90;;;23.10;70.80;;;;;;5016092;28;20050;-90
2021/10/30 10:32:00;;;;;;;22.08;7.57;;;22.40;70.90;;;;;;5015762;28;20041;-91
2021/10/30 10:34:37;;;;;;;17.73;7.63;;;22.40;74.30;;;;;;5015766;28;20092;-92
2021/10/30 10:37:13;;;;;;;11.48;6.63;;;22.30;71.70;;;;;;5013800;28;20045;-91
2021/10/30 10:39:48;;;;;;;14.20;6.32;;;21.60;72.50;;;;;;5015792;28;20053;-90
2021/10/30 10:42:40;;;;;;;8.40;5.60;;;22.20;68.80;;;;;;5015658;28;20141;-91
2021/10/30 10:45:15;;;;;;;11.93;6.13;;;22.00;70.80;;;;;;5004391;28;20429;-91
2021/10/30 10:47:43;;;;;;;12.82;5.65;;;23.60;60.50;;;;;;5015673;28;20069;-91
2021/10/30 10:50:21;;;;;;;6.95;5.22;;;23.50;64.90;;;;;;5015452;28;20057;-91
2021/10/30 10:53:01;;;;;;;8.25;5.50;;;23.00;67.80;;;;;;5015511;28;20409;-91
2021/10/30 10:55:29;;;;;;;8.38;5.50;;;22.90;67.10;;;;;;5014906;28;20112;-91
2021/10/30 10:58:06;;;;;;;6.95;4.88;;;22.90;69.20;;;;;;5014934;28;20050;-89
2021/10/30 11:00:35;;;;;;;8.63;5.30;;;23.70;68.10;;;;;;5015181;28;20403;-90
2021/10/30 11:03:03;;;;;;;10.27;6.15;;;24.10;64.00;;;;;;5015276;28;20048;-91
2021/10/30 11:05:35;;;;;;;8.63;4.95;;;24.30;66.10;;;;;;5015419;28;20053;-91
2021/10/30 11:08:29;;;;;;;11.43;5.60;;;25.20;63.10;;;;;;5015120;28;20057;-91
2021/10/30 11:11:19;;;;;;;12.90;5.13;;;24.40;63.40;;;;;;5015829;28;20141;-91
2021/10/30 11:13:58;;;;;;;10.00;5.57;;;24.20;64.40;;;;;;5015263;28;20056;-91
2021/10/30 11:16:53;;;;;;;7.95;5.18;;;24.80;60.10;;;;;;5015986;28;20061;-91
2021/10/30 11:19:37;;;;;;;7.63;4.47;;;24.20;56.80;;;;;;5015342;28;20116;-91
2021/10/30 11:22:12;;;;;;;7.90;5.40;;;24.00;59.70;;;;;;5015142;28;20058;-91
2021/10/30 11:24:55;;;;;;;23.80;7.88;;;24.80;58.60;;;;;;5026145;28;20030;-91
2021/10/30 11:27:21;;;;;;;21.55;7.13;;;24.60;57.30;;;;;;5038995;28;20057;-91
2021/10/30 11:29:50;;;;;;;5.97;5.28;;;24.70;56.90;;;;;;5014745;28;20045;-93
2021/10/30 11:32:18;;;;;;;5.05;4.60;;;24.60;52.40;;;;;;5015155;28;20089;-90
2021/10/30 11:34:52;;;;;;;5.75;5.25;;;25.20;51.40;;;;;;5016561;28;20046;-89
2021/10/30 11:37:19;;;;;;;4.88;4.22;;;25.40;49.60;;;;;;5016117;28;20137;-88
2021/10/30 11:39:47;;;;;;;5.15;4.20;;;24.80;50.50;;;;;;5014516;28;20140;-89
2021/10/30 11:42:14;;;;;;;5.30;4.80;;;24.30;50.90;;;;;;5015921;28;20498;-91
2021/10/30 11:44:50;;;;;;;4.80;4.40;;;23.80;50.80;;;;;;5014054;28;20056;-91
2021/10/30 11:47:25;;;;;;;4.63;4.22;;;23.80;52.30;;;;;;5014441;28;20060;-91
2021/10/30 11:49:52;;;;;;;10.00;5.40;;;23.60;51.10;;;;;;5014248;28;20045;-92
2021/10/30 11:52:19;;;;;;;4.63;4.22;;;23.40;50.70;;;;;;5014167;28;20496;-92
2021/10/30 11:54:46;;;;;;;4.97;4.53;;;22.70;52.20;;;;;;5014194;28;20088;-89
2021/10/30 11:57:13;;;;;;;6.22;4.53;;;21.90;53.80;;;;;;5015010;28;20042;-91
2021/10/30 11:59:42;;;;;;;7.22;4.60;;;21.20;53.40;;;;;;5014274;28;20054;-88
2021/10/30 12:02:14;;;;;;;6.07;4.55;;;20.30;53.50;;;;;;5014411;28;20045;-90
2021/10/30 12:04:42;;;;;;;5.13;4.63;;;19.80;55.60;;;;;;5015296;28;20506;-90
2021/10/30 12:07:14;;;;;;;8.15;4.47;;;19.70;57.10;;;;;;5014295;28;20388;-89
2021/10/30 12:09:46;;;;;;;4.90;4.50;;;20.10;57.60;;;;;;5014364;28;20064;-89
2021/10/30 12:12:19;;;;;;;4.43;4.03;;;20.40;55.10;;;;;;5014005;28;20466;-88
2021/10/30 12:14:52;;;;;;;5.45;3.85;;;20.10;55.50;;;;;;5013567;28;20096;-89
2021/10/30 12:17:28;;;;;;;6.90;4.38;;;20.00;55.50;;;;;;5014768;28;20046;-87
2021/10/30 12:19:58;;;;;;;4.97;4.47;;;19.60;56.60;;;;;;5014589;28;20046;-88
2021/10/30 12:22:31;;;;;;;5.10;4.60;;;19.60;58.40;;;;;;5013827;28;20050;-90
2021/10/30 12:25:03;;;;;;;4.57;4.10;;;19.40;56.90;;;;;;5013511;28;20467;-87
2021/10/30 12:27:32;;;;;;;3.95;3.70;;;19.20;56.20;;;;;;5013299;28;20076;-88
2021/10/30 12:30:11;;;;;;;4.70;4.22;;;19.10;57.90;;;;;;5013749;28;20078;-87
2021/10/30 12:32:40;;;;;;;6.20;4.78;;;19.10;60.50;;;;;;5013878;28;20064;-87
2021/10/30 12:35:07;;;;;;;4.78;4.38;;;18.90;59.50;;;;;;5014431;28;20056;-87
2021/10/30 12:37:37;;;;;;;5.13;4.63;;;18.60;58.90;;;;;;5013298;28;20064;-89
2021/10/30 12:40:33;;;;;;;6.80;4.60;;;18.50;59.90;;;;;;5014270;28;20051;-88
2021/10/30 12:43:09;;;;;;;5.35;4.55;;;18.30;60.00;;;;;;5031631;28;20128;-88
2021/10/30 12:45:51;;;;;;;11.25;4.97;;;18.10;60.60;;;;;;5028007;28;20096;-87